Aérodrome :
LOGIN :

S'inscrire | Disclaimer

   EN    FR    IT 

 










Légende :    VFR   VFR Marginal   IFR   IFR Intensif   IFR Très Intensif
Visi : 
Plafond : 
>= 8 km
>= 3000ft
5 à 8 km
1000 à 3000 ft
1500m à 5 km
500 à 1000 ft
800 à 1500m
200 à 500 ft
< 800m
< 200 ft
Symboles :   Orages  Brouillard  Fortes neiges  Fortes précipitations  Vent > 20 kt
SIGMETs :   Divers  Orages  Givrage  Turbulence  Onde Orograph.  Cendres Volcan.






- Altitude de l'aérodrome : 204 ft
- Code IATA : AGF


LFBA - Agen

DERNIER METAR :
  • 052230Z AUTO 30005KT CAVOK 21/18 Q1021

METARs EXPIRÉS :
  • 052200Z AUTO 29006KT CAVOK 22/18 Q1021
  • 052130Z AUTO 29004KT CAVOK 22/18 Q1021
  • 052100Z AUTO 29005KT 9999 FEW036 23/18 Q1021
  • 052030Z AUTO 28003KT 260V320 CAVOK 24/18 Q1020
  • 052000Z AUTO 34004KT 9999 4000 NSC 24/17 Q1020 NOSIG

TAF TAF LFBA
Valide du 05 à 15h jusqu'au 06 à 00h UTC


051400Z 0515/0524 32005KT CAVOK
BECMG 0522/0524 BKN013



MET'MAP, la Météo Aéronautique d'un coup d'oeil ! - Copyright ORBIFLY Décembre 2007 - Disclaimer

ORBIFLY MET'MAP TEAM :

Programmation & Développement : Alexandra Zaïnal
Sur une idée originale de : Baudouin d'Aumeries
Assistance à la programmation : Marc-Olivier Méhu
Soutien technique & logistique : Manuel Goepfert

Contact : metmap@orbifly.com




SOURCES & CREDITS :

   NOAA